Weather at Flugplatz Hausen am Albis

Public forecast

Using degrees Celsius for public forecast. Weather courtesy of forecast.io.

Closest aviation weather report (METAR) to Flugplatz Hausen am Albis

Closest report is Dübendorf Air Base, 11.0 nm (20.4 km) NNE. Retrieved 2020/11/26 09:20 UTC (23 minutes ago):

LSMD 260920Z VRB01KT 4200 SCT002 OVC004 01/00 Q1024 RMK YLO

Closest aviation forecast (TAF) to Flugplatz Hausen am Albis

Closest forecast is Dübendorf Air Base, 11.0 nm (20.4 km) NNE. Retrieved 2020/11/26 10:00 UTC (0 seconds ago):

TAF LSMD 260925Z 2610/2716 VRB02KT 3000 BR OVC002 PROB40 2610/2616 5000 OVC006 PROB40 2616/2706 1200 BCFG OVC001 BECMG 2707/2710 6000 BKN005